Time;durP1;ratioP1;P1;durP2;ratioP2;P2;SDS_P1;SDS_P2;PMS_P1;PMS_P2;Temp;Humidity;BMP_temperature;BMP_pressure;BME280_temperature;BME280_humidity;BME280_pressure;Samples;Min_cycle;Max_cycle;Signal;HPM_P1;HPM_P2
2023/03/05 00:01:56;;;;;;;2.58;0.95;;;8.20;98.70;;;;;;10436931;28;20021;-83
2023/03/05 00:06:56;;;;;;;1.70;0.57;;;8.20;98.70;;;;;;10444071;28;20029;-83
2023/03/05 00:11:57;;;;;;;1.90;0.73;;;8.20;98.70;;;;;;10440393;28;20021;-83
2023/03/05 00:16:58;;;;;;;1.08;0.60;;;8.20;98.80;;;;;;10448110;28;20112;-83
2023/03/05 00:21:58;;;;;;;1.65;0.80;;;8.20;98.80;;;;;;10441595;28;20062;-83
2023/03/05 00:27:00;;;;;;;2.45;0.95;;;8.00;98.70;;;;;;10424522;28;20036;-83
2023/03/05 00:32:00;;;;;;;1.98;0.82;;;8.20;98.80;;;;;;10439489;28;20058;-83
2023/03/05 00:37:01;;;;;;;1.13;0.60;;;8.10;98.80;;;;;;10439384;28;20115;-83
2023/03/05 00:42:02;;;;;;;2.85;1.00;;;9.30;99.10;;;;;;10426095;28;20129;-83
2023/03/05 00:47:03;;;;;;;1.65;0.70;;;8.10;98.80;;;;;;10435467;28;20735;-83
2023/03/05 00:52:04;;;;;;;2.22;0.80;;;8.10;98.80;;;;;;10441812;28;20092;-83
2023/03/05 00:57:05;;;;;;;1.38;0.70;;;8.10;98.80;;;;;;10424024;28;20037;-83
2023/03/05 01:02:06;;;;;;;1.48;0.57;;;8.10;98.80;;;;;;10442285;28;20104;-84
2023/03/05 01:07:06;;;;;;;3.97;0.70;;;8.10;98.80;;;;;;10428888;28;20029;-83
2023/03/05 01:12:07;;;;;;;1.13;0.80;;;8.10;98.80;;;;;;10437817;28;20025;-83
2023/03/05 01:17:08;;;;;;;1.58;0.50;;;8.10;98.80;;;;;;10440272;28;20518;-83
2023/03/05 01:22:08;;;;;;;1.20;0.55;;;8.10;98.80;;;;;;10440661;28;20037;-83
2023/03/05 01:27:09;;;;;;;2.60;0.50;;;8.10;98.80;;;;;;10439920;28;20438;-83
2023/03/05 01:32:10;;;;;;;1.25;0.47;;;8.10;98.80;;;;;;10439256;28;20036;-83
2023/03/05 01:37:10;;;;;;;1.00;0.45;;;8.50;98.90;;;;;;10437769;28;20500;-83
2023/03/05 01:42:11;;;;;;;1.83;0.70;;;8.80;99.00;;;;;;10439854;28;20032;-83
2023/03/05 01:47:12;;;;;;;0.65;0.40;;;8.10;98.80;;;;;;10441758;28;20385;-83
2023/03/05 01:52:18;;;;;;;1.52;0.52;;;8.10;98.80;;;;;;10435061;28;20029;-83
2023/03/05 01:57:27;;;;;;;1.58;0.50;;;8.00;98.80;;;;;;10436988;28;20385;-83
2023/03/05 02:02:28;;;;;;;;;;;8.00;98.80;;;;;;10447620;28;20027;-83
2023/03/05 02:07:30;;;;;;;1.45;0.80;;;8.00;98.90;;;;;;10449428;28;20274;-83
2023/03/05 02:12:31;;;;;;;3.70;0.70;;;8.00;98.80;;;;;;10448035;28;20067;-83
2023/03/05 02:17:31;;;;;;;1.52;1.05;;;8.00;98.80;;;;;;10447160;28;20086;-83
2023/03/05 02:22:32;;;;;;;1.58;0.60;;;8.00;98.80;;;;;;10462637;28;20082;-83
2023/03/05 02:27:35;;;;;;;1.00;0.70;;;8.00;98.90;;;;;;10448293;28;20028;-83
2023/03/05 02:32:36;;;;;;;1.13;0.70;;;8.00;98.90;;;;;;10446085;28;20108;-83
2023/03/05 02:37:37;;;;;;;1.85;0.50;;;8.30;99.00;;;;;;10448074;28;20112;-83
2023/03/05 02:42:38;;;;;;;1.42;0.68;;;7.90;98.90;;;;;;10430141;28;20285;-83
2023/03/05 02:47:39;;;;;;;2.53;0.60;;;7.90;98.90;;;;;;10446603;28;20021;-83
2023/03/05 02:52:40;;;;;;;1.45;0.60;;;8.00;98.90;;;;;;10447415;28;20009;-83
2023/03/05 02:57:40;;;;;;;0.65;0.45;;;8.60;99.10;;;;;;10444233;28;20025;-83
2023/03/05 03:02:41;;;;;;;1.77;0.70;;;7.90;98.90;;;;;;10429473;28;20036;-83
2023/03/05 03:07:42;;;;;;;0.70;0.43;;;7.90;98.90;;;;;;10427473;28;20088;-83
2023/03/05 03:12:44;;;;;;;2.03;0.52;;;7.90;98.90;;;;;;10427840;28;20400;-83
2023/03/05 03:17:45;;;;;;;2.20;0.47;;;8.60;99.10;;;;;;10441942;28;20032;-83
2023/03/05 03:22:46;;;;;;;0.50;0.30;;;7.90;98.90;;;;;;10460017;28;20029;-83
2023/03/05 03:27:47;;;;;;;0.65;0.38;;;7.90;98.90;;;;;;10458772;28;20403;-83
2023/03/05 03:32:51;;;;;;;1.30;0.60;;;7.90;98.90;;;;;;10439243;28;20512;-83
2023/03/05 03:37:51;;;;;;;0.50;0.35;;;7.90;99.10;;;;;;10440869;28;20100;-83
2023/03/05 03:42:52;;;;;;;1.95;0.70;;;7.90;98.90;;;;;;10442495;28;20094;-83
2023/03/05 03:47:53;;;;;;;1.10;0.43;;;7.90;98.90;;;;;;10442534;28;20084;-83
2023/03/05 03:52:54;;;;;;;1.67;0.55;;;7.90;98.90;;;;;;10444848;28;20017;-83
2023/03/05 03:57:54;;;;;;;2.75;0.73;;;7.90;98.90;;;;;;10442107;28;20063;-83
2023/03/05 04:02:55;;;;;;;0.60;0.40;;;7.90;98.90;;;;;;10440023;28;20104;-83
2023/03/05 04:07:57;;;;;;;1.33;0.40;;;7.90;99.20;;;;;;10426208;28;20554;-83
2023/03/05 04:12:57;;;;;;;2.40;0.40;;;7.90;98.90;;;;;;10423278;28;20082;-83
2023/03/05 04:17:58;;;;;;;1.63;0.40;;;7.80;98.90;;;;;;10441894;28;20037;-83
2023/03/05 04:22:59;;;;;;;1.30;0.47;;;7.80;98.90;;;;;;10442999;28;20096;-83
2023/03/05 04:28:00;;;;;;;2.22;0.40;;;7.80;98.90;;;;;;10439999;28;20025;-84
2023/03/05 04:33:00;;;;;;;1.08;0.30;;;7.80;98.90;;;;;;10436718;28;20048;-83
2023/03/05 04:38:01;;;;;;;0.88;0.40;;;7.80;98.90;;;;;;10439658;28;20036;-84
2023/03/05 04:43:02;;;;;;;2.63;0.50;;;7.80;98.90;;;;;;10420720;28;20037;-83
2023/03/05 04:48:04;;;;;;;1.65;0.30;;;7.80;98.90;;;;;;10436763;28;20107;-84
2023/03/05 04:53:05;;;;;;;1.52;0.45;;;7.80;98.90;;;;;;10442738;28;20033;-84
2023/03/05 04:58:05;;;;;;;0.65;0.40;;;7.80;99.20;;;;;;10440355;28;20029;-83
2023/03/05 05:03:06;;;;;;;0.73;0.30;;;7.80;98.90;;;;;;10441765;28;20032;-84
2023/03/05 05:08:06;;;;;;;0.68;0.30;;;8.80;99.20;;;;;;10442975;28;20039;-84
2023/03/05 05:13:07;;;;;;;0.90;0.30;;;7.80;99.00;;;;;;10440112;28;20032;-83
2023/03/05 05:18:08;;;;;;;0.20;0.20;;;7.80;99.00;;;;;;10443430;28;20071;-84
2023/03/05 05:23:08;;;;;;;0.40;0.32;;;7.70;98.90;;;;;;10438967;28;20029;-84
2023/03/05 05:28:10;;;;;;;0.35;0.20;;;7.70;99.00;;;;;;10432946;28;20021;-84
2023/03/05 05:33:10;;;;;;;0.30;0.30;;;7.70;99.00;;;;;;10424178;28;20037;-84
2023/03/05 05:38:11;;;;;;;0.30;0.30;;;7.70;99.00;;;;;;10448883;28;20025;-83
2023/03/05 05:43:12;;;;;;;0.40;0.20;;;7.70;99.00;;;;;;10450119;28;20040;-83
2023/03/05 05:48:13;;;;;;;0.63;0.22;;;7.70;99.00;;;;;;10445561;28;20440;-84
2023/03/05 05:53:13;;;;;;;2.90;0.50;;;7.70;99.00;;;;;;10446650;28;20112;-83
2023/03/05 05:58:14;;;;;;;0.77;0.30;;;7.70;99.00;;;;;;10448466;28;20047;-83
2023/03/05 06:03:15;;;;;;;1.45;0.40;;;7.70;99.00;;;;;;10444051;28;20033;-84
2023/03/05 06:08:15;;;;;;;0.30;0.20;;;7.70;99.00;;;;;;10447033;28;20037;-83
2023/03/05 06:13:16;;;;;;;1.48;0.40;;;7.70;99.00;;;;;;10447356;28;20764;-84
2023/03/05 06:18:18;;;;;;;0.35;0.30;;;7.70;99.00;;;;;;10447951;28;20031;-84
2023/03/05 06:23:18;;;;;;;0.70;0.20;;;7.70;99.00;;;;;;10444744;28;20033;-84
2023/03/05 06:28:20;;;;;;;1.05;0.30;;;7.70;99.00;;;;;;10425033;28;20025;-84
2023/03/05 06:33:21;;;;;;;0.30;0.20;;;7.60;99.00;;;;;;10442919;28;20029;-84
2023/03/05 06:38:22;;;;;;;1.73;0.40;;;7.70;99.00;;;;;;10449462;28;20013;-84
2023/03/05 06:43:22;;;;;;;0.93;0.40;;;7.60;99.00;;;;;;10446348;28;20029;-83
2023/03/05 06:48:23;;;;;;;0.45;0.28;;;7.70;99.00;;;;;;10443070;28;20039;-83
2023/03/05 06:53:24;;;;;;;0.52;0.20;;;7.70;99.00;;;;;;10447537;28;20032;-84
2023/03/05 06:58:25;;;;;;;0.73;0.30;;;7.70;99.00;;;;;;10441822;28;20033;-83
2023/03/05 07:03:26;;;;;;;0.68;0.40;;;7.70;99.10;;;;;;10419789;28;20025;-83
2023/03/05 07:08:26;;;;;;;0.30;0.20;;;7.70;99.00;;;;;;10441731;28;20078;-83
2023/03/05 07:13:28;;;;;;;0.70;0.30;;;7.70;99.00;;;;;;10447740;28;20021;-83
2023/03/05 07:18:29;;;;;;;0.50;0.30;;;7.70;99.00;;;;;;10444662;28;20123;-83
2023/03/05 07:23:30;;;;;;;2.15;0.55;;;7.70;98.90;;;;;;10446884;28;20459;-83
2023/03/05 07:28:30;;;;;;;1.85;0.40;;;7.70;98.90;;;;;;10446008;28;20064;-83
2023/03/05 07:33:32;;;;;;;1.95;0.75;;;7.70;98.90;;;;;;10440739;28;20070;-83
2023/03/05 07:38:33;;;;;;;1.05;0.30;;;7.70;98.90;;;;;;10449062;28;20047;-84
2023/03/05 07:43:34;;;;;;;0.45;0.25;;;7.70;98.90;;;;;;10446335;28;20489;-83
2023/03/05 07:48:34;;;;;;;0.77;0.30;;;7.70;98.80;;;;;;10449453;28;20071;-83
2023/03/05 07:53:36;;;;;;;0.35;0.20;;;7.70;98.90;;;;;;10447166;28;20045;-83
2023/03/05 07:58:38;;;;;;;0.22;0.13;;;7.70;98.80;;;;;;10465432;28;20108;-83
2023/03/05 08:03:40;;;;;;;0.65;0.20;;;7.80;98.80;;;;;;10447933;28;20021;-83
2023/03/05 08:08:40;;;;;;;0.55;0.32;;;8.10;98.90;;;;;;10447729;28;20566;-83
2023/03/05 08:13:42;;;;;;;2.42;0.40;;;7.80;98.80;;;;;;10449449;28;20021;-83
2023/03/05 08:18:44;;;;;;;0.63;0.20;;;7.90;98.80;;;;;;10447234;28;20040;-83
2023/03/05 08:23:45;;;;;;;1.67;0.45;;;7.90;98.70;;;;;;10445241;28;20028;-83
2023/03/05 08:28:46;;;;;;;0.75;0.20;;;7.90;98.70;;;;;;10446879;28;20051;-83
2023/03/05 08:33:48;;;;;;;0.75;0.30;;;8.00;98.70;;;;;;10446050;28;20075;-83
2023/03/05 08:38:50;;;;;;;0.35;0.22;;;8.00;98.60;;;;;;10448824;28;20049;-83
2023/03/05 08:43:50;;;;;;;1.20;0.30;;;8.90;98.80;;;;;;10425870;28;20029;-83
2023/03/05 08:48:51;;;;;;;0.30;0.25;;;8.10;98.60;;;;;;10444349;28;20029;-83
2023/03/05 08:53:53;;;;;;;0.35;0.30;;;8.20;98.60;;;;;;10445414;28;20085;-83
2023/03/05 08:58:54;;;;;;;0.15;0.10;;;8.20;98.50;;;;;;10446069;28;20017;-83
2023/03/05 09:03:55;;;;;;;0.98;0.20;;;8.30;98.50;;;;;;10437294;28;20033;-83
2023/03/05 09:08:58;;;;;;;0.68;0.30;;;8.50;98.50;;;;;;10445245;28;20025;-83
2023/03/05 09:13:58;;;;;;;0.35;0.20;;;8.30;98.50;;;;;;10449844;28;20036;-83
2023/03/05 09:24:57;;;;;;;0.65;0.30;;;8.40;98.50;;;;;;10432909;28;20488;-83
2023/03/05 09:36:26;;;;;;;0.80;0.40;;;8.40;97.30;;;;;;10560787;27;20573;-68
2023/03/05 09:41:44;;;;;;;0.93;0.40;;;8.40;98.20;;;;;;10551461;28;20338;-67
2023/03/05 09:47:00;;;;;;;3.17;0.35;;;8.40;98.20;;;;;;10546044;28;20096;-68
2023/03/05 09:52:22;;;;;;;1.60;0.55;;;8.40;98.20;;;;;;10565314;27;20052;-68
2023/03/05 09:57:40;;;;;;;0.93;0.30;;;8.50;98.20;;;;;;10551579;28;20468;-67
2023/03/05 10:02:49;;;;;;;1.33;0.20;;;8.50;98.20;;;;;;10552838;27;20086;-68
2023/03/05 10:07:56;;;;;;;3.60;0.40;;;8.50;98.20;;;;;;10553003;28;20065;-68
2023/03/05 10:13:01;;;;;;;0.75;0.70;;;8.50;98.30;;;;;;10544471;27;20032;-68
2023/03/05 10:18:13;;;;;;;2.83;0.40;;;8.60;98.30;;;;;;10565304;28;20103;-68
2023/03/05 10:23:13;;;;;;;0.52;0.28;;;8.60;98.30;;;;;;10564854;28;20066;-69
2023/03/05 10:28:25;;;;;;;0.52;0.40;;;8.60;98.30;;;;;;10546802;28;20042;-68
2023/03/05 10:33:54;;;;;;;2.22;0.20;;;8.60;98.30;;;;;;10541721;28;20028;-68
2023/03/05 10:39:13;;;;;;;2.77;0.30;;;8.60;98.30;;;;;;10547335;27;20024;-68
2023/03/05 10:44:19;;;;;;;;;;;8.70;98.30;;;;;;10539648;28;20056;-68
2023/03/05 10:49:28;;;;;;;0.68;0.22;;;8.70;98.30;;;;;;10523066;28;19961;-69
2023/03/05 10:54:31;;;;;;;1.83;0.30;;;8.70;98.20;;;;;;10515524;28;20319;-68
2023/03/05 10:59:32;;;;;;;2.03;0.50;;;8.80;98.20;;;;;;10512095;28;20114;-68
2023/03/05 11:04:36;;;;;;;2.63;0.40;;;8.80;98.20;;;;;;10517392;28;20491;-69
2023/03/05 11:09:36;;;;;;;0.30;0.30;;;8.80;98.20;;;;;;10509990;28;20473;-68
2023/03/05 11:14:43;;;;;;;1.33;0.30;;;8.90;98.20;;;;;;10530380;28;20028;-69
2023/03/05 11:19:43;;;;;;;1.75;0.35;;;8.90;98.20;;;;;;10513518;28;20039;-68
2023/03/05 11:25:01;;;;;;;1.27;0.28;;;8.90;98.20;;;;;;10514074;28;20403;-69
2023/03/05 11:30:03;;;;;;;3.42;0.40;;;9.00;98.00;;;;;;10520336;28;20044;-71
2023/03/05 11:35:31;;;;;;;3.50;0.57;;;8.90;97.20;;;;;;10519223;28;20036;-70
2023/03/05 11:40:36;;;;;;;2.23;0.40;;;8.70;95.60;;;;;;10507026;28;20033;-69
2023/03/05 11:45:38;;;;;;;5.63;0.82;;;8.70;97.10;;;;;;10524722;28;20052;-69
2023/03/05 11:50:42;;;;;;;2.22;0.40;;;8.80;96.90;;;;;;10525084;28;20488;-69
2023/03/05 11:55:44;;;;;;;1.92;0.43;;;8.90;96.40;;;;;;10524082;28;20490;-69
2023/03/05 12:00:45;;;;;;;1.95;0.88;;;8.90;96.00;;;;;;10524439;28;20024;-69
2023/03/05 12:05:55;;;;;;;2.72;0.60;;;8.80;95.80;;;;;;10525137;28;20155;-69
2023/03/05 12:11:00;;;;;;;4.03;0.63;;;8.90;95.50;;;;;;10508141;28;20017;-68
2023/03/05 12:16:19;;;;;;;5.13;0.95;;;8.70;95.30;;;;;;10516322;28;20028;-69
2023/03/05 12:21:19;;;;;;;;;;;8.40;95.30;;;;;;10514097;28;20544;-68
2023/03/05 12:27:00;;;;;;;4.07;1.00;;;8.30;94.90;;;;;;10508396;28;19960;-69
2023/03/05 12:32:03;;;;;;;2.95;0.60;;;8.50;96.00;;;;;;10499637;28;20119;-69
2023/03/05 12:37:11;;;;;;;3.85;0.57;;;8.60;96.40;;;;;;10512642;28;20390;-69
2023/03/05 12:42:27;;;;;;;5.05;1.08;;;8.60;96.40;;;;;;10502005;28;20313;-69
2023/03/05 12:47:28;;;;;;;3.88;0.82;;;8.70;96.30;;;;;;10516222;28;20123;-69
2023/03/05 12:52:31;;;;;;;2.22;0.70;;;8.80;96.50;;;;;;10520515;28;20552;-69
2023/03/05 12:57:32;;;;;;;3.00;0.63;;;8.80;96.50;;;;;;10501755;28;20036;-69
2023/03/05 13:02:43;;;;;;;2.53;0.70;;;8.90;96.50;;;;;;10513273;28;20024;-68
2023/03/05 13:07:43;;;;;;;6.32;0.65;;;9.00;96.40;;;;;;10508138;28;20093;-69
2023/03/05 13:12:51;;;;;;;2.92;0.70;;;9.10;96.50;;;;;;10515042;28;20452;-69
2023/03/05 13:18:02;;;;;;;4.13;0.60;;;9.20;96.50;;;;;;10503142;28;20095;-69
2023/03/05 13:23:19;;;;;;;1.10;0.50;;;9.20;96.50;;;;;;10512505;28;20059;-70
2023/03/05 13:28:27;;;;;;;3.13;0.50;;;9.20;96.60;;;;;;10506287;28;20245;-69
2023/03/05 13:33:35;;;;;;;1.70;0.63;;;9.20;96.70;;;;;;10511387;28;20290;-69
2023/03/05 13:38:44;;;;;;;1.67;0.77;;;9.20;96.80;;;;;;10511232;28;20042;-68
2023/03/05 13:43:50;;;;;;;1.08;0.70;;;9.30;97.10;;;;;;10511142;28;20077;-66
2023/03/05 13:48:51;;;;;;;2.08;0.90;;;9.30;96.60;;;;;;10515572;28;20098;-67
2023/03/05 13:53:52;;;;;;;3.10;0.82;;;9.10;96.00;;;;;;10506592;28;20115;-67
2023/03/05 13:58:55;;;;;;;2.03;0.60;;;9.10;96.10;;;;;;10503626;28;20016;-66
2023/03/05 14:04:12;;;;;;;4.10;0.98;;;9.10;96.40;;;;;;10506102;28;20032;-67
2023/03/05 14:09:23;;;;;;;1.00;0.65;;;9.10;96.60;;;;;;10511699;28;20036;-66
2023/03/05 14:14:26;;;;;;;2.58;0.90;;;9.10;96.70;;;;;;10499531;28;20024;-66
2023/03/05 14:19:37;;;;;;;3.65;0.98;;;9.20;96.80;;;;;;10495932;28;20389;-65
2023/03/05 14:24:38;;;;;;;2.92;1.17;;;9.20;96.80;;;;;;10517718;28;20032;-66
2023/03/05 14:29:44;;;;;;;2.30;1.13;;;9.30;96.90;;;;;;10522728;28;20318;-65
2023/03/05 14:34:58;;;;;;;3.45;1.05;;;9.40;97.00;;;;;;10516218;28;20071;-65
2023/03/05 14:40:04;;;;;;;4.57;1.33;;;9.30;97.10;;;;;;10515450;28;20028;-67
2023/03/05 14:45:20;;;;;;;2.35;0.80;;;9.40;97.30;;;;;;10513161;28;20043;-66
2023/03/05 14:50:23;;;;;;;2.75;1.10;;;9.40;97.30;;;;;;10524138;28;20085;-66
2023/03/05 14:55:26;;;;;;;4.65;1.10;;;9.40;97.40;;;;;;10513273;28;20051;-66
2023/03/05 15:00:27;;;;;;;2.90;1.20;;;9.40;97.50;;;;;;10524611;28;20020;-66
2023/03/05 15:05:28;;;;;;;1.23;0.90;;;9.40;97.50;;;;;;10511748;28;20385;-66
2023/03/05 15:10:29;;;;;;;2.38;1.15;;;9.40;97.60;;;;;;10526170;28;20032;-66
2023/03/05 15:15:29;;;;;;;1.42;0.68;;;9.40;97.60;;;;;;10518880;28;20114;-66
2023/03/05 15:20:31;;;;;;;1.75;0.98;;;9.40;97.70;;;;;;10512395;28;20020;-67
2023/03/05 15:25:32;;;;;;;2.58;1.00;;;9.30;97.70;;;;;;10520373;28;20036;-66
2023/03/05 15:30:36;;;;;;;3.78;1.10;;;9.30;97.80;;;;;;10521828;28;20566;-66
2023/03/05 15:35:37;;;;;;;3.30;0.85;;;9.30;97.80;;;;;;10516667;28;20047;-66
2023/03/05 15:40:38;;;;;;;1.73;0.85;;;9.30;97.90;;;;;;10518495;28;20051;-66
2023/03/05 15:45:38;;;;;;;1.60;0.65;;;9.30;97.90;;;;;;10508392;28;20495;-66
2023/03/05 15:50:40;;;;;;;1.70;0.80;;;9.30;98.00;;;;;;10523004;28;20499;-66
2023/03/05 15:55:45;;;;;;;1.85;1.15;;;9.30;98.00;;;;;;10526674;28;20039;-65
2023/03/05 16:00:46;;;;;;;2.72;1.13;;;9.20;98.00;;;;;;10521795;28;20115;-66
2023/03/05 16:05:46;;;;;;;1.60;0.70;;;9.20;98.10;;;;;;10523752;28;20100;-65
2023/03/05 16:10:47;;;;;;;2.03;0.93;;;9.20;98.10;;;;;;10517972;28;20110;-65
2023/03/05 16:15:51;;;;;;;2.05;0.65;;;9.20;98.10;;;;;;10529492;28;20019;-65
2023/03/05 16:20:52;;;;;;;5.63;1.73;;;9.10;98.10;;;;;;10515779;28;20020;-65
2023/03/05 16:25:53;;;;;;;1.52;0.90;;;9.10;98.10;;;;;;10526295;28;20391;-65
2023/03/05 16:30:55;;;;;;;4.43;1.02;;;9.10;98.10;;;;;;10509060;28;20036;-66
2023/03/05 16:36:19;;;;;;;5.30;1.27;;;9.20;97.90;;;;;;10502269;28;20486;-63
2023/03/05 16:41:22;;;;;;;2.38;0.90;;;9.20;98.00;;;;;;10508610;28;20032;-63
2023/03/05 16:46:25;;;;;;;1.73;0.60;;;9.10;98.10;;;;;;10511333;28;20030;-63
2023/03/05 16:51:26;;;;;;;2.63;0.82;;;9.10;98.30;;;;;;10519697;28;20504;-63
2023/03/05 16:56:26;;;;;;;3.13;0.60;;;9.10;98.10;;;;;;10510627;28;20035;-63
2023/03/05 17:01:29;;;;;;;4.45;0.80;;;9.10;98.10;;;;;;10512058;28;20037;-63
2023/03/05 17:06:31;;;;;;;2.22;0.90;;;9.10;98.10;;;;;;10513786;28;20032;-63
2023/03/05 17:11:32;;;;;;;2.50;0.73;;;9.00;98.10;;;;;;10506944;28;20036;-63
2023/03/05 17:16:33;;;;;;;4.32;1.00;;;9.00;98.10;;;;;;10520735;28;20032;-62
2023/03/05 17:21:33;;;;;;;0.90;0.50;;;9.00;98.10;;;;;;10515648;28;20025;-64
2023/03/05 17:26:35;;;;;;;4.10;0.70;;;9.90;98.40;;;;;;10519918;28;20488;-63
2023/03/05 17:31:35;;;;;;;2.92;0.95;;;9.00;98.20;;;;;;10513873;28;20031;-63
2023/03/05 17:36:38;;;;;;;3.08;0.90;;;9.00;98.20;;;;;;10511386;28;20051;-63
2023/03/05 17:41:38;;;;;;;2.53;0.70;;;8.90;98.20;;;;;;10521080;28;20398;-62
2023/03/05 17:46:39;;;;;;;3.45;0.65;;;9.00;98.30;;;;;;10524407;28;20035;-64
2023/03/05 17:51:40;;;;;;;3.83;1.05;;;8.90;98.20;;;;;;10517362;28;20099;-63
2023/03/05 17:56:40;;;;;;;4.32;1.10;;;8.90;98.20;;;;;;10521681;28;20099;-64
2023/03/05 18:01:41;;;;;;;3.72;1.10;;;8.90;98.30;;;;;;10504586;28;20426;-64
2023/03/05 18:06:42;;;;;;;2.80;1.00;;;8.90;98.40;;;;;;10516736;28;20458;-63
2023/03/05 18:11:43;;;;;;;5.28;1.10;;;8.90;98.40;;;;;;10514819;28;20032;-64
2023/03/05 18:16:44;;;;;;;2.08;0.82;;;8.90;98.30;;;;;;10517045;28;20383;-64
2023/03/05 18:21:44;;;;;;;2.95;1.00;;;8.90;98.50;;;;;;10513446;28;20556;-63
2023/03/05 18:26:45;;;;;;;2.47;1.05;;;8.80;98.50;;;;;;10529793;28;20172;-64
2023/03/05 18:31:46;;;;;;;2.80;0.90;;;8.80;98.50;;;;;;10515822;28;20040;-63
2023/03/05 18:36:47;;;;;;;4.05;1.20;;;8.80;98.50;;;;;;10513658;28;20379;-64
2023/03/05 18:41:48;;;;;;;3.17;0.85;;;8.80;98.50;;;;;;10523960;28;20023;-63
2023/03/05 18:46:48;;;;;;;1.92;0.90;;;8.70;98.50;;;;;;10507602;28;20044;-64
2023/03/05 18:51:49;;;;;;;2.60;0.98;;;8.70;98.50;;;;;;10507714;28;20214;-66
2023/03/05 18:56:49;;;;;;;1.92;1.33;;;9.40;98.70;;;;;;10506446;28;20503;-64
2023/03/05 19:01:50;;;;;;;1.60;1.10;;;8.70;98.50;;;;;;10507045;28;20123;-64
2023/03/05 19:06:50;;;;;;;4.60;1.40;;;8.60;98.50;;;;;;10516872;28;20238;-64
2023/03/05 19:11:51;;;;;;;2.38;1.17;;;8.60;98.50;;;;;;10500346;28;20033;-64
2023/03/05 19:16:52;;;;;;;3.65;1.35;;;8.60;98.50;;;;;;10515925;28;20479;-64
2023/03/05 19:21:55;;;;;;;3.92;1.40;;;8.60;98.50;;;;;;10509769;28;20050;-64
2023/03/05 19:26:59;;;;;;;3.75;1.52;;;8.60;98.50;;;;;;10508466;28;20577;-64
2023/03/05 19:31:59;;;;;;;2.28;1.40;;;8.50;98.50;;;;;;10505055;28;20033;-64
2023/03/05 19:37:00;;;;;;;3.65;1.67;;;8.50;98.50;;;;;;10512532;28;20024;-64
2023/03/05 19:42:01;;;;;;;3.80;1.42;;;8.50;98.50;;;;;;10515346;28;20052;-64
2023/03/05 19:47:02;;;;;;;2.83;1.60;;;8.40;98.50;;;;;;10514086;28;20021;-64
2023/03/05 19:52:05;;;;;;;2.55;1.33;;;8.60;98.60;;;;;;10517356;28;20035;-64
2023/03/05 19:57:05;;;;;;;4.03;1.70;;;8.40;98.50;;;;;;10519106;28;20123;-65
2023/03/05 20:02:09;;;;;;;2.58;1.50;;;8.40;98.50;;;;;;10504561;28;20024;-64
2023/03/05 20:07:09;;;;;;;4.90;1.80;;;8.40;98.50;;;;;;10509946;28;20345;-64
2023/03/05 20:12:10;;;;;;;3.35;1.70;;;8.40;98.50;;;;;;10517824;28;20111;-63
2023/03/05 20:17:11;;;;;;;3.47;1.73;;;8.40;98.60;;;;;;10512950;28;20089;-63
2023/03/05 20:22:11;;;;;;;3.35;1.40;;;7.90;98.40;;;;;;10508402;28;20086;-64
2023/03/05 20:27:12;;;;;;;4.57;2.05;;;8.30;98.50;;;;;;10505252;28;20028;-64
2023/03/05 20:32:13;;;;;;;3.22;1.85;;;8.30;98.50;;;;;;10510532;28;20266;-64
2023/03/05 20:37:14;;;;;;;2.67;1.85;;;8.30;98.50;;;;;;10504606;28;20123;-64
2023/03/05 20:42:15;;;;;;;3.40;1.75;;;8.30;98.50;;;;;;10510152;28;20107;-64
2023/03/05 20:47:31;;;;;;;3.25;1.70;;;8.30;98.50;;;;;;10506237;28;20027;-64
2023/03/05 20:52:31;;;;;;;5.00;2.00;;;8.20;98.50;;;;;;10509712;28;20021;-64
2023/03/05 20:57:32;;;;;;;7.05;1.83;;;8.20;98.50;;;;;;10516269;28;20030;-64
2023/03/05 21:02:33;;;;;;;4.95;2.03;;;8.20;98.80;;;;;;10515392;28;20037;-64
2023/03/05 21:07:33;;;;;;;3.90;1.80;;;8.20;98.50;;;;;;10506109;28;20047;-64
2023/03/05 21:12:34;;;;;;;4.55;1.65;;;8.20;98.50;;;;;;10515381;28;20488;-64
2023/03/05 21:17:35;;;;;;;4.70;1.80;;;8.20;98.50;;;;;;10511015;28;20414;-64
2023/03/05 21:22:35;;;;;;;4.32;1.67;;;8.10;98.50;;;;;;10506304;28;20028;-64
2023/03/05 21:27:36;;;;;;;2.85;1.33;;;8.20;98.60;;;;;;10512281;28;20028;-64
2023/03/05 21:32:37;;;;;;;4.90;1.60;;;8.10;98.60;;;;;;10507268;28;20119;-64
2023/03/05 21:37:41;;;;;;;4.95;1.83;;;8.10;98.60;;;;;;10513138;28;20020;-64
2023/03/05 21:42:43;;;;;;;3.78;1.50;;;8.10;98.60;;;;;;10512299;28;20506;-64
2023/03/05 21:47:44;;;;;;;3.80;1.38;;;8.10;98.60;;;;;;10506092;28;20396;-63
2023/03/05 21:52:44;;;;;;;2.90;1.45;;;8.00;98.60;;;;;;10508725;28;20077;-63
2023/03/05 21:57:45;;;;;;;3.72;1.55;;;8.10;98.70;;;;;;10501202;28;20573;-63
2023/03/05 22:02:46;;;;;;;4.38;1.48;;;8.00;98.60;;;;;;10508878;28;20092;-64
2023/03/05 22:07:46;;;;;;;4.22;2.20;;;8.00;98.60;;;;;;10509539;28;20047;-64
2023/03/05 22:13:01;;;;;;;2.38;1.42;;;8.00;98.60;;;;;;10514824;28;20511;-63
2023/03/05 22:18:02;;;;;;;3.72;1.17;;;8.00;98.60;;;;;;10511654;28;20020;-63
2023/03/05 22:23:04;;;;;;;2.65;1.20;;;7.90;98.60;;;;;;10509728;28;20396;-63
2023/03/05 22:28:05;;;;;;;2.95;1.45;;;7.90;98.60;;;;;;10522271;28;20024;-64
2023/03/05 22:33:05;;;;;;;4.10;2.28;;;7.90;98.60;;;;;;10506889;28;20567;-64
2023/03/05 22:38:08;;;;;;;2.75;1.30;;;7.90;98.60;;;;;;10499616;28;20445;-64
2023/03/05 22:43:09;;;;;;;3.00;1.40;;;7.80;98.60;;;;;;10527259;28;20023;-63
2023/03/05 22:48:10;;;;;;;2.70;1.25;;;7.80;98.60;;;;;;10525207;28;20028;-64
2023/03/05 22:53:11;;;;;;;1.83;1.13;;;7.80;98.60;;;;;;10516147;28;20039;-64
2023/03/05 22:58:11;;;;;;;2.92;1.17;;;7.80;98.60;;;;;;10519143;28;20044;-64
2023/03/05 23:03:12;;;;;;;2.00;1.02;;;7.80;98.60;;;;;;10514067;28;20107;-63
2023/03/05 23:08:13;;;;;;;1.42;1.05;;;7.80;98.60;;;;;;10526059;28;20062;-63
2023/03/05 23:13:13;;;;;;;3.25;1.20;;;7.70;98.60;;;;;;10520555;28;20092;-63
2023/03/05 23:18:14;;;;;;;1.80;1.00;;;7.70;98.60;;;;;;10521400;28;20111;-63
2023/03/05 23:23:15;;;;;;;2.35;1.10;;;7.70;98.60;;;;;;10526709;28;20020;-64
2023/03/05 23:28:16;;;;;;;2.00;1.25;;;7.70;98.60;;;;;;10520802;28;20032;-63
2023/03/05 23:33:22;;;;;;;1.25;0.95;;;7.60;98.60;;;;;;10517263;28;20510;-64
2023/03/05 23:38:24;;;;;;;3.35;1.33;;;7.60;98.60;;;;;;10511352;28;20028;-63
2023/03/05 23:43:25;;;;;;;2.38;1.17;;;7.60;98.60;;;;;;10526163;27;20019;-64
2023/03/05 23:48:28;;;;;;;1.55;0.90;;;7.60;98.60;;;;;;10522290;28;20531;-64
2023/03/05 23:53:31;;;;;;;4.22;1.30;;;7.60;98.60;;;;;;10516372;28;20328;-63
2023/03/05 23:58:33;;;;;;;2.28;1.10;;;7.60;98.60;;;;;;10520504;28;20024;-63
